Time;durP1;ratioP1;P1;durP2;ratioP2;P2;SDS_P1;SDS_P2;PMS_P1;PMS_P2;Temp;Humidity;BMP_temperature;BMP_pressure;BME280_temperature;BME280_humidity;BME280_pressure;Samples;Min_cycle;Max_cycle;Signal;HPM_P1;HPM_P2
2022/04/19 00:00:30;;;;;;;0.20;0.20;;;;;;;19.85;39.61;101050.91;5135627;27;20050;-31
2022/04/19 00:02:55;;;;;;;0.20;0.20;;;;;;;19.85;39.90;101050.09;5124625;27;20035;-29
2022/04/19 00:05:21;;;;;;;0.20;0.20;;;;;;;19.84;39.49;101046.50;5142500;27;20045;-31
2022/04/19 00:07:47;;;;;;;0.20;0.20;;;;;;;19.84;39.86;101045.69;5140687;27;20053;-30
2022/04/19 00:10:12;;;;;;;0.20;0.20;;;;;;;19.83;39.84;101039.31;5120061;27;20522;-30
2022/04/19 00:12:38;;;;;;;0.20;0.20;;;;;;;19.84;39.76;101034.63;5137027;27;20050;-30
2022/04/19 00:15:04;;;;;;;0.10;0.10;;;;;;;19.85;39.51;101039.03;5140163;27;20453;-29
2022/04/19 00:17:30;;;;;;;0.20;0.20;;;;;;;19.84;39.63;101035.44;5118956;27;20063;-30
2022/04/19 00:19:56;;;;;;;0.20;0.20;;;;;;;19.85;39.58;101037.09;5137687;27;20047;-29
2022/04/19 00:22:21;;;;;;;0.20;0.20;;;;;;;19.84;39.72;101031.84;5143657;27;20405;-29
2022/04/19 00:24:47;;;;;;;0.20;0.20;;;;;;;19.85;39.52;101041.78;5137284;27;20046;-30
2022/04/19 00:27:13;;;;;;;0.20;0.20;;;;;;;19.84;39.81;101038.22;5141756;27;20046;-31
2022/04/19 00:29:41;;;;;;;0.20;0.20;;;;;;;19.85;39.89;101037.09;5142177;27;20039;-30
2022/04/19 00:32:11;;;;;;;0.20;0.20;;;;;;;19.84;39.51;101035.44;5141033;27;20083;-31
2022/04/19 00:34:38;;;;;;;0.20;0.20;;;;;;;19.85;39.88;101031.56;5140952;27;20035;-30
2022/04/19 00:37:05;;;;;;;0.20;0.20;;;;;;;19.85;39.61;101023.28;5124759;27;20077;-31
2022/04/19 00:39:31;;;;;;;0.20;0.20;;;;;;;19.85;39.59;101022.44;5142805;27;20180;-30
2022/04/19 00:41:56;;;;;;;0.20;0.20;;;;;;;19.84;39.81;101021.63;5118007;27;20035;-29
2022/04/19 00:44:23;;;;;;;0.20;0.20;;;;;;;19.85;39.50;101027.97;5137680;27;20047;-29
2022/04/19 00:46:50;;;;;;;0.20;0.20;;;;;;;19.85;39.44;101026.03;5121241;27;20104;-29
2022/04/19 00:49:17;;;;;;;0.20;0.20;;;;;;;19.85;39.73;101020.50;5140496;27;20047;-30
2022/04/19 00:51:44;;;;;;;0.20;0.20;;;;;;;19.85;39.48;101022.44;5141377;27;20078;-30
2022/04/19 00:54:10;;;;;;;0.20;0.20;;;;;;;19.85;39.56;101019.69;5142364;27;20067;-30
2022/04/19 00:56:36;;;;;;;0.20;0.20;;;;;;;19.85;39.53;101014.16;5120917;27;20158;-30
2022/04/19 00:59:02;;;;;;;0.20;0.20;;;;;;;19.85;39.79;101016.91;5136402;27;20127;-30
2022/04/19 01:01:28;;;;;;;0.20;0.20;;;;;;;19.86;39.55;101019.44;5137444;27;20043;-29
2022/04/19 01:03:53;;;;;;;0.20;0.20;;;;;;;19.85;39.69;101019.69;5136946;27;20099;-30
2022/04/19 01:06:19;;;;;;;0.20;0.20;;;;;;;19.84;39.53;101021.63;5139699;27;20047;-30
2022/04/19 01:08:45;;;;;;;0.20;0.20;;;;;;;19.84;39.51;101009.75;5138466;27;20689;-31
2022/04/19 01:13:56;;;;;;;0.20;0.20;;;;;;;19.85;39.64;101005.88;5122200;27;20074;-30
2022/04/19 01:16:22;;;;;;;0.20;0.20;;;;;;;19.84;39.53;101005.03;5120337;27;20077;-30
2022/04/19 01:18:48;;;;;;;0.15;0.15;;;;;;;19.84;39.58;101010.56;5141816;27;20038;-29
2022/04/19 01:21:14;;;;;;;0.20;0.20;;;;;;;19.85;39.72;101003.94;5145601;27;20053;-30
2022/04/19 01:23:39;;;;;;;0.20;0.20;;;;;;;19.86;39.54;101007.50;5141500;27;20091;-30
2022/04/19 01:26:06;;;;;;;0.20;0.20;;;;;;;19.85;39.51;101008.63;5139391;27;20050;-30
2022/04/19 01:28:32;;;;;;;0.20;0.20;;;;;;;19.85;39.61;101005.88;5139866;27;20085;-30
2022/04/19 01:30:58;;;;;;;0.20;0.20;;;;;;;19.85;39.68;101003.94;5135278;27;20043;-30
2022/04/19 01:33:24;;;;;;;0.20;0.20;;;;;;;19.85;39.84;101006.69;5138043;27;20039;-30
2022/04/19 01:35:49;;;;;;;0.20;0.20;;;;;;;19.84;39.83;101012.50;5138280;27;20046;-30
2022/04/19 01:38:15;;;;;;;0.20;0.20;;;;;;;19.84;39.73;101005.03;5132976;27;20043;-29
2022/04/19 01:40:41;;;;;;;0.20;0.20;;;;;;;19.85;39.77;101005.88;5124321;27;20051;-30
2022/04/19 01:43:06;;;;;;;0.20;0.20;;;;;;;19.84;39.53;100995.94;5139085;27;20064;-29
2022/04/19 01:45:33;;;;;;;0.20;0.20;;;;;;;19.85;39.59;101003.09;5138776;27;20042;-29
2022/04/19 01:48:00;;;;;;;0.20;0.20;;;;;;;19.84;39.58;100994.00;5120598;27;20198;-30
2022/04/19 01:50:27;;;;;;;0.20;0.20;;;;;;;19.84;39.45;100996.75;5102842;27;20142;-30
2022/04/19 01:52:55;;;;;;;0.20;0.20;;;;;;;19.84;39.84;100994.00;5138069;27;20062;-30
2022/04/19 01:55:21;;;;;;;0.20;0.20;;;;;;;19.85;39.59;100997.56;5118179;27;20086;-30
2022/04/19 01:57:49;;;;;;;0.20;0.20;;;;;;;19.84;40.03;100993.16;5142050;27;20129;-29
2022/04/19 02:00:16;;;;;;;0.10;0.10;;;;;;;19.85;39.63;100994.81;5122081;27;20137;-30
2022/04/19 02:02:43;;;;;;;0.20;0.20;;;;;;;19.84;39.67;100994.00;5136591;27;20050;-30
2022/04/19 02:05:09;;;;;;;0.20;0.20;;;;;;;19.85;39.59;100989.28;5140398;27;20077;-30
2022/04/19 02:07:38;;;;;;;0.20;0.20;;;;;;;19.84;39.52;100994.00;5102921;27;20047;-30
2022/04/19 02:10:04;;;;;;;0.20;0.20;;;;;;;19.86;39.77;100996.47;5139783;27;20085;-29
2022/04/19 02:12:31;;;;;;;0.13;0.13;;;;;;;19.86;39.66;100993.69;5143687;27;20567;-29
2022/04/19 02:14:57;;;;;;;0.20;0.20;;;;;;;19.85;39.51;100986.53;5142310;27;20085;-29
2022/04/19 02:17:23;;;;;;;0.20;0.20;;;;;;;19.85;39.85;100989.28;5121499;27;20035;-30
2022/04/19 02:20:05;;;;;;;0.10;0.10;;;;;;;19.85;39.97;100984.59;5137399;27;20463;-30
2022/04/19 02:22:32;;;;;;;0.20;0.20;;;;;;;19.84;39.58;100982.13;5121743;27;20089;-29
2022/04/19 02:24:59;;;;;;;0.20;0.20;;;;;;;19.84;39.59;100988.47;5143238;27;20039;-29
2022/04/19 02:27:25;;;;;;;0.20;0.20;;;;;;;19.86;39.65;100988.16;5148664;27;20050;-30
2022/04/19 02:29:51;;;;;;;0.20;0.20;;;;;;;19.85;39.61;100981.81;5130503;27;20126;-30
2022/04/19 02:32:17;;;;;;;0.20;0.20;;;;;;;19.85;39.73;100983.75;5122260;28;20050;-33
2022/04/19 02:34:43;;;;;;;0.20;0.20;;;;;;;19.87;39.74;100984.31;5119525;27;20130;-30
2022/04/19 02:37:09;;;;;;;0.20;0.20;;;;;;;19.86;39.79;100989.03;5142490;27;20367;-32
2022/04/19 02:39:36;;;;;;;0.20;0.20;;;;;;;19.84;39.67;100987.63;5124095;27;20097;-29
2022/04/19 02:42:04;;;;;;;0.20;0.20;;;;;;;19.85;39.73;100983.75;5140897;27;20142;-31
2022/04/19 02:44:30;;;;;;;0.20;0.20;;;;;;;19.85;39.49;100979.06;5125990;27;20074;-29
2022/04/19 02:46:55;;;;;;;0.20;0.20;;;;;;;19.86;39.66;100974.34;5145779;27;20362;-29
2022/04/19 02:49:21;;;;;;;0.20;0.20;;;;;;;19.85;39.36;100978.22;5142707;27;20051;-30
2022/04/19 02:51:47;;;;;;;0.20;0.20;;;;;;;19.85;39.72;100978.22;5143178;27;20039;-32
2022/04/19 02:54:13;;;;;;;0.20;0.20;;;;;;;19.84;39.36;100980.19;5122412;27;20059;-30
2022/04/19 02:56:39;;;;;;;0.17;0.17;;;;;;;19.84;39.52;100982.13;5139355;27;20039;-31
2022/04/19 02:59:04;;;;;;;0.20;0.20;;;;;;;19.85;39.53;100987.34;5140388;27;20126;-29
2022/04/19 03:01:30;;;;;;;0.20;0.20;;;;;;;19.84;39.56;100985.69;5143341;27;20047;-31
2022/04/19 03:03:57;;;;;;;0.20;0.20;;;;;;;19.85;39.55;100981.81;5148764;27;20054;-29
2022/04/19 03:06:23;;;;;;;0.20;0.20;;;;;;;19.85;39.42;100981.81;5140628;27;20074;-30
2022/04/19 03:08:49;;;;;;;0.20;0.20;;;;;;;19.85;39.86;100981.81;5120079;27;20075;-30
2022/04/19 03:11:15;;;;;;;0.20;0.20;;;;;;;19.86;39.62;100979.88;5140155;27;20460;-30
2022/04/19 03:13:41;;;;;;;0.20;0.20;;;;;;;19.86;39.75;100982.63;5142843;27;20050;-31
2022/04/19 03:16:08;;;;;;;0.20;0.20;;;;;;;19.85;39.48;100976.28;5121815;27;20043;-31
2022/04/19 03:18:34;;;;;;;0.20;0.20;;;;;;;19.84;39.53;100980.19;5139259;27;20517;-30
2022/04/19 03:20:59;;;;;;;0.20;0.20;;;;;;;19.86;39.72;100975.19;5140047;27;20039;-29
2022/04/19 03:28:56;;;;;;;0.20;0.20;;;;;;;19.84;39.42;100973.81;5121504;27;20075;-30
2022/04/19 03:31:22;;;;;;;0.20;0.20;;;;;;;19.84;39.91;100971.88;5139965;27;20460;-30
2022/04/19 03:33:52;;;;;;;0.10;0.10;;;;;;;19.85;39.59;100976.28;5142261;27;20051;-30
2022/04/19 03:36:19;;;;;;;0.20;0.20;;;;;;;19.85;39.60;100969.94;5123775;27;20493;-31
2022/04/19 03:38:45;;;;;;;0.20;0.20;;;;;;;19.85;39.57;100969.94;5140761;27;20107;-30
2022/04/19 03:41:11;;;;;;;0.20;0.20;;;;;;;19.85;39.63;100967.19;5118936;27;20130;-31
2022/04/19 03:43:37;;;;;;;0.20;0.20;;;;;;;19.85;39.45;100964.41;5140384;27;20039;-30
2022/04/19 03:46:02;;;;;;;0.20;0.20;;;;;;;19.84;39.65;100963.59;5141325;27;20101;-31
2022/04/19 03:48:28;;;;;;;0.20;0.20;;;;;;;19.85;39.75;100970.75;5122678;27;20104;-30
2022/04/19 03:50:54;;;;;;;0.20;0.20;;;;;;;19.85;39.74;100970.75;5143637;27;20046;-31
2022/04/19 03:53:20;;;;;;;0.20;0.20;;;;;;;19.85;39.78;100969.94;5139362;27;20457;-29
2022/04/19 03:55:45;;;;;;;0.20;0.20;;;;;;;19.85;39.47;100972.69;5131945;28;20047;-30
2022/04/19 03:58:11;;;;;;;0.20;0.20;;;;;;;19.84;39.43;100963.59;5132435;28;20047;-30
2022/04/19 04:00:37;;;;;;;0.20;0.20;;;;;;;19.85;39.86;100976.28;5099217;28;20035;-31
2022/04/19 04:03:04;;;;;;;0.20;0.20;;;;;;;19.85;39.80;100979.06;5140414;27;20050;-30
2022/04/19 04:05:30;;;;;;;0.20;0.20;;;;;;;19.85;39.63;100981.00;5144489;27;20039;-29
2022/04/19 04:07:57;;;;;;;0.20;0.20;;;;;;;19.85;39.40;100968.00;5120624;27;20035;-29
2022/04/19 04:10:23;;;;;;;0.20;0.20;;;;;;;19.84;39.78;100982.13;5119551;27;20082;-29
2022/04/19 04:12:48;;;;;;;0.20;0.20;;;;;;;19.85;39.35;100983.75;5138605;27;20126;-29
2022/04/19 04:15:14;;;;;;;0.20;0.20;;;;;;;19.86;39.56;100985.41;5139858;27;20047;-30
2022/04/19 04:17:40;;;;;;;0.20;0.20;;;;;;;19.84;39.61;100976.59;5144285;27;20046;-31
2022/04/19 04:20:06;;;;;;;0.20;0.20;;;;;;;19.85;39.72;100983.75;5122097;27;20050;-31
2022/04/19 04:22:32;;;;;;;0.20;0.20;;;;;;;19.84;39.45;100984.88;5125328;27;20130;-30
2022/04/19 04:24:57;;;;;;;0.20;0.20;;;;;;;19.85;39.64;100992.06;5123774;27;20039;-30
2022/04/19 04:27:23;;;;;;;0.20;0.20;;;;;;;19.86;39.54;100988.16;5142072;27;20039;-30
2022/04/19 04:29:49;;;;;;;0.20;0.20;;;;;;;19.86;39.44;100988.16;5143412;27;20060;-30
2022/04/19 04:32:14;;;;;;;0.20;0.20;;;;;;;19.85;39.40;100995.63;5117263;27;20047;-29
2022/04/19 04:34:40;;;;;;;0.20;0.20;;;;;;;19.84;39.52;100991.22;5136877;27;20070;-29
2022/04/19 04:37:06;;;;;;;0.20;0.20;;;;;;;19.83;39.58;100994.28;5142217;27;20038;-29
2022/04/19 04:39:32;;;;;;;0.20;0.20;;;;;;;19.84;39.49;101002.28;5141917;27;20474;-30
2022/04/19 04:41:57;;;;;;;0.20;0.20;;;;;;;19.84;39.57;100995.94;5143410;27;20038;-33
2022/04/19 04:44:23;;;;;;;0.20;0.20;;;;;;;19.84;39.47;101002.28;5147119;27;20085;-30
2022/04/19 04:49:35;;;;;;;0.20;0.20;;;;;;;19.84;39.33;101002.28;5127407;27;20077;-29
2022/04/19 04:52:02;;;;;;;0.20;0.20;;;;;;;19.85;39.27;100998.41;5144135;27;20043;-29
2022/04/19 04:54:28;;;;;;;0.20;0.20;;;;;;;19.84;39.58;101005.03;5136975;27;20125;-31
2022/04/19 04:56:53;;;;;;;0.20;0.20;;;;;;;19.85;39.49;101011.41;5145449;27;20134;-30
2022/04/19 04:59:19;;;;;;;0.20;0.20;;;;;;;19.85;39.70;101005.88;5140319;27;20053;-30
2022/04/19 05:01:45;;;;;;;0.20;0.20;;;;;;;19.84;39.63;101010.56;5142766;27;20049;-30
2022/04/19 05:04:10;;;;;;;0.20;0.20;;;;;;;19.85;39.55;101009.47;5138923;27;20050;-29
2022/04/19 05:06:36;;;;;;;0.20;0.20;;;;;;;19.83;39.75;100991.53;5142128;27;20553;-30
2022/04/19 05:09:02;;;;;;;0.20;0.20;;;;;;;19.84;39.53;100996.75;5136083;27;20424;-30
2022/04/19 05:11:28;;;;;;;0.20;0.20;;;;;;;19.85;39.45;100994.81;5138973;27;20127;-31
2022/04/19 05:13:55;;;;;;;0.20;0.20;;;;;;;19.85;39.61;100997.56;5143567;27;20043;-30
2022/04/19 05:16:26;;;;;;;0.20;0.20;;;;;;;19.84;39.67;101001.47;5144535;27;20532;-29
2022/04/19 05:18:51;;;;;;;0.20;0.20;;;;;;;19.85;39.34;101005.88;5138305;27;20047;-30
2022/04/19 05:21:17;;;;;;;0.20;0.20;;;;;;;19.84;39.43;101007.81;5138688;27;20051;-29
2022/04/19 05:23:43;;;;;;;0.75;0.30;;;;;;;19.85;39.77;101008.63;5141507;27;20495;-30
2022/04/19 05:26:09;;;;;;;0.20;0.20;;;;;;;19.84;39.44;101005.03;5136679;27;20091;-29
2022/04/19 05:28:34;;;;;;;0.20;0.20;;;;;;;19.84;39.68;101001.47;5144402;27;20429;-31
2022/04/19 05:31:00;;;;;;;0.20;0.20;;;;;;;19.84;39.54;101002.28;5141273;27;20051;-30
2022/04/19 05:33:26;;;;;;;0.20;0.20;;;;;;;19.84;39.93;101002.28;5139106;27;20093;-30
2022/04/19 05:35:52;;;;;;;0.20;0.20;;;;;;;19.84;39.69;100995.94;5144023;27;20118;-30
2022/04/19 05:38:17;;;;;;;0.15;0.15;;;;;;;19.85;39.31;101008.63;5136939;27;20130;-31
2022/04/19 05:40:43;;;;;;;0.20;0.20;;;;;;;19.83;39.65;100992.34;5123765;27;20166;-31
2022/04/19 05:43:08;;;;;;;0.20;0.20;;;;;;;19.83;39.41;101002.56;5140246;27;20363;-30
2022/04/19 05:45:34;;;;;;;0.20;0.20;;;;;;;19.83;39.51;101003.41;5139376;27;20133;-31
2022/04/19 05:48:00;;;;;;;0.20;0.20;;;;;;;19.85;39.65;101008.63;5151411;27;20049;-30
2022/04/19 05:50:26;;;;;;;0.20;0.20;;;;;;;19.84;39.68;101007.00;5142654;27;20042;-31
2022/04/19 05:52:52;;;;;;;0.20;0.20;;;;;;;19.85;39.54;101005.88;5123846;27;20511;-31
2022/04/19 05:55:17;;;;;;;0.20;0.20;;;;;;;19.83;39.41;101011.69;5142495;27;20058;-30
2022/04/19 05:57:43;;;;;;;0.20;0.20;;;;;;;19.85;39.54;101008.63;5141446;27;20054;-30
2022/04/19 06:00:09;;;;;;;0.20;0.20;;;;;;;19.85;39.34;101008.63;5127578;27;20732;-31
2022/04/19 06:05:20;;;;;;;0.20;0.20;;;;;;;19.84;39.38;101015.28;5130684;27;20039;-31
2022/04/19 06:07:47;;;;;;;0.20;0.20;;;;;;;19.85;39.59;101003.94;5144938;27;20045;-30
2022/04/19 06:10:15;;;;;;;0.20;0.20;;;;;;;19.84;39.43;101010.56;5122408;27;20138;-30
2022/04/19 06:12:41;;;;;;;0.20;0.20;;;;;;;19.84;39.41;101009.75;5142539;27;20549;-29
2022/04/19 06:15:08;;;;;;;0.20;0.20;;;;;;;19.84;39.75;101009.75;5147267;27;20318;-31
2022/04/19 06:17:35;;;;;;;0.20;0.20;;;;;;;19.83;39.55;101013.63;5143420;27;20074;-31
2022/04/19 06:20:02;;;;;;;0.20;0.20;;;;;;;19.84;39.82;101013.34;5139502;27;20446;-30
2022/04/19 06:22:28;;;;;;;0.20;0.20;;;;;;;19.84;39.57;101018.03;5141633;27;20070;-33
2022/04/19 06:24:57;;;;;;;0.20;0.20;;;;;;;19.83;39.41;101016.41;5145526;27;20401;-30
2022/04/19 06:27:24;;;;;;;0.20;0.20;;;;;;;19.85;39.73;101016.91;5143947;27;20084;-30
2022/04/19 06:29:52;;;;;;;0.20;0.20;;;;;;;19.84;39.34;101018.88;5138042;27;20129;-31
2022/04/19 06:32:19;;;;;;;0.20;0.20;;;;;;;19.83;39.43;101011.69;5143166;27;20066;-31
2022/04/19 06:34:45;;;;;;;0.38;0.38;;;;;;;19.83;39.27;101014.47;5141061;27;20038;-31
2022/04/19 06:37:10;;;;;;;0.20;0.20;;;;;;;19.84;39.48;101018.03;5143568;27;20354;-30
2022/04/19 06:39:36;;;;;;;0.20;0.20;;;;;;;19.84;39.74;101018.03;5127388;27;20111;-31
2022/04/19 06:42:02;;;;;;;0.20;0.20;;;;;;;19.83;39.41;101017.22;5144017;27;20047;-31
2022/04/19 06:44:28;;;;;;;0.20;0.20;;;;;;;19.84;39.61;101015.28;5144217;27;20077;-30
2022/04/19 06:46:54;;;;;;;0.20;0.20;;;;;;;19.84;39.27;101012.50;5149185;27;20122;-30
2022/04/19 06:49:19;;;;;;;0.20;0.20;;;;;;;19.84;39.75;101015.28;5141412;27;20125;-29
2022/04/19 06:51:45;;;;;;;0.20;0.20;;;;;;;19.84;39.43;101018.03;5144973;27;20043;-30
2022/04/19 06:54:12;;;;;;;0.20;0.20;;;;;;;19.84;39.58;101013.34;5147968;27;20090;-29
2022/04/19 06:56:38;;;;;;;0.25;0.25;;;;;;;19.85;39.72;101014.16;5137159;27;20485;-30
2022/04/19 06:59:03;;;;;;;0.20;0.20;;;;;;;19.84;39.68;101018.03;5140280;27;20066;-30
2022/04/19 07:01:38;;;;;;;0.20;0.20;;;;;;;19.84;39.70;101023.56;5145194;27;20461;-30
2022/04/19 07:04:03;;;;;;;0.20;0.20;;;;;;;19.85;39.68;101017.75;5141446;27;20054;-32
2022/04/19 07:06:29;;;;;;;0.20;0.20;;;;;;;19.86;39.67;101027.72;5148087;27;20039;-30
2022/04/19 07:08:55;;;;;;;0.20;0.20;;;;;;;19.85;39.41;101027.97;5144017;27;20039;-30
2022/04/19 07:11:20;;;;;;;0.20;0.20;;;;;;;19.86;39.47;101021.34;5145403;27;20130;-30
2022/04/19 07:13:46;;;;;;;0.20;0.20;;;;;;;19.84;39.22;101018.88;5144962;27;20044;-30
2022/04/19 07:16:12;;;;;;;0.20;0.20;;;;;;;19.85;39.70;101014.16;5141894;27;20475;-30
2022/04/19 07:18:37;;;;;;;0.20;0.20;;;;;;;19.85;39.67;101011.41;5128536;27;20043;-30
2022/04/19 07:26:37;;;;;;;0.20;0.20;;;;;;;19.85;39.44;101020.50;5127978;27;20195;-29
2022/04/19 07:29:04;;;;;;;0.20;0.20;;;;;;;19.84;39.69;101021.63;5137236;27;20081;-31
2022/04/19 07:31:31;;;;;;;0.20;0.20;;;;;;;19.82;39.46;101018.34;5141053;27;20512;-29
2022/04/19 07:33:57;;;;;;;0.20;0.20;;;;;;;19.83;39.71;101019.97;5142111;27;20043;-29
2022/04/19 07:36:23;;;;;;;0.20;0.20;;;;;;;19.84;39.48;101018.88;5140742;27;20485;-30
2022/04/19 07:38:49;;;;;;;0.20;0.20;;;;;;;19.84;39.40;101018.03;5138207;27;20043;-29
2022/04/19 07:41:15;;;;;;;0.20;0.20;;;;;;;19.84;39.52;101018.88;5146599;27;20035;-31
2022/04/19 07:43:43;;;;;;;0.20;0.20;;;;;;;19.85;39.70;101022.44;5128753;27;20100;-29
2022/04/19 07:46:10;;;;;;;0.20;0.20;;;;;;;19.84;39.74;101018.88;5143630;27;20465;-31
2022/04/19 07:48:37;;;;;;;0.20;0.20;;;;;;;19.84;39.70;101023.56;5143418;27;20057;-31
2022/04/19 07:51:03;;;;;;;0.20;0.20;;;;;;;19.84;39.72;101015.28;5138869;27;20133;-30
2022/04/19 07:53:28;;;;;;;0.20;0.20;;;;;;;19.84;39.47;101015.28;5141224;27;20172;-29
2022/04/19 07:55:57;;;;;;;0.20;0.20;;;;;;;19.84;39.77;101018.88;5126629;27;20038;-30
2022/04/19 07:58:24;;;;;;;0.20;0.20;;;;;;;19.85;39.38;101026.03;5139507;27;20073;-29
2022/04/19 08:00:49;;;;;;;0.20;0.20;;;;;;;19.84;39.68;101023.56;5144280;27;20081;-30
2022/04/19 08:03:15;;;;;;;0.20;0.20;;;;;;;19.84;39.63;101015.28;5145066;27;20046;-29
2022/04/19 08:05:41;;;;;;;0.20;0.20;;;;;;;19.83;39.50;101017.22;5144323;27;20475;-31
2022/04/19 08:08:07;;;;;;;0.20;0.20;;;;;;;19.84;39.63;101018.88;5136260;27;20043;-31
2022/04/19 08:10:32;;;;;;;0.20;0.20;;;;;;;19.84;39.69;101021.63;5126771;27;20083;-31
2022/04/19 08:12:58;;;;;;;0.20;0.20;;;;;;;19.85;39.75;101022.44;5119342;27;20045;-29
2022/04/19 08:15:24;;;;;;;0.20;0.20;;;;;;;19.84;39.61;101026.34;5139313;27;20043;-30
2022/04/19 08:17:51;;;;;;;0.20;0.20;;;;;;;19.83;39.66;101022.75;5143931;27;20081;-31
2022/04/19 08:20:16;;;;;;;0.20;0.20;;;;;;;19.83;39.58;101016.41;5142408;27;20117;-30
2022/04/19 08:22:42;;;;;;;0.20;0.20;;;;;;;19.84;39.56;101016.09;5121859;27;20473;-32
2022/04/19 08:25:10;;;;;;;0.30;0.30;;;;;;;19.84;39.44;101016.09;5141922;27;20369;-30
2022/04/19 08:27:47;;;;;;;0.20;0.20;;;;;;;19.84;39.77;101016.09;5136263;27;20067;-30
2022/04/19 08:30:15;;;;;;;0.20;0.20;;;;;;;19.85;39.36;101011.41;5135454;27;20046;-31
2022/04/19 08:32:40;;;;;;;0.20;0.20;;;;;;;19.84;39.53;101010.56;5145290;27;20321;-30
2022/04/19 08:35:07;;;;;;;0.20;0.20;;;;;;;19.85;39.81;101014.16;5116301;27;20039;-33
2022/04/19 08:37:34;;;;;;;0.20;0.20;;;;;;;19.85;39.63;101014.16;5122863;27;20075;-30
2022/04/19 08:40:00;;;;;;;0.20;0.20;;;;;;;19.83;39.69;101005.34;5109306;27;20071;-31
2022/04/19 08:42:29;;;;;;;0.20;0.20;;;;;;;19.83;39.58;101011.69;5119025;27;20182;-31
2022/04/19 08:44:56;;;;;;;;;;;;;;;19.83;39.56;101006.16;5137027;27;20138;-29
2022/04/19 08:47:23;;;;;;;0.20;0.20;;;;;;;19.83;39.76;101008.09;5138938;27;20358;-30
2022/04/19 08:49:49;;;;;;;0.20;0.20;;;;;;;19.82;39.60;101004.50;5141459;27;20136;-30
2022/04/19 08:52:16;;;;;;;0.20;0.20;;;;;;;19.83;39.54;101010.88;5122747;27;20043;-31
2022/04/19 08:57:30;;;;;;;0.20;0.20;;;;;;;19.82;39.44;101015.56;5126618;27;20102;-30
2022/04/19 08:59:57;;;;;;;0.20;0.20;;;;;;;19.84;39.52;101015.28;5137754;27;20043;-30
2022/04/19 09:02:25;;;;;;;0.20;0.20;;;;;;;19.84;39.59;101012.50;5140294;27;20071;-29
2022/04/19 09:04:52;;;;;;;0.20;0.20;;;;;;;19.83;39.60;101011.69;5137138;27;20069;-30
2022/04/19 09:07:18;;;;;;;0.10;0.10;;;;;;;19.82;39.76;101018.34;5127003;27;20047;-29
2022/04/19 09:09:59;;;;;;;0.20;0.20;;;;;;;19.84;39.79;101015.28;5138251;27;20048;-30
2022/04/19 09:12:25;;;;;;;0.20;0.20;;;;;;;19.84;39.59;101007.00;5138491;27;20066;-31
2022/04/19 09:15:06;;;;;;;0.20;0.20;;;;;;;19.83;39.81;101008.94;5142955;27;20047;-33
2022/04/19 09:17:38;;;;;;;0.20;0.20;;;;;;;19.84;39.41;101018.03;5143952;27;20070;-29
2022/04/19 09:20:10;;;;;;;0.20;0.20;;;;;;;19.84;39.78;101009.75;5103789;27;20082;-29
2022/04/19 09:22:37;;;;;;;0.20;0.20;;;;;;;19.83;39.63;101008.94;5128880;27;20393;-29
2022/04/19 09:25:14;;;;;;;0.20;0.20;;;;;;;19.84;39.61;101007.00;5141297;27;20393;-29
2022/04/19 09:27:40;;;;;;;0.20;0.20;;;;;;;19.83;39.46;100997.88;5121560;27;20122;-29
2022/04/19 09:30:26;;;;;;;0.20;0.20;;;;;;;19.84;39.72;101002.28;5140190;27;20317;-32
2022/04/19 09:33:10;;;;;;;0.20;0.20;;;;;;;19.84;39.54;100990.41;5084109;28;20646;-30
2022/04/19 09:35:40;;;;;;;0.20;0.20;;;;;;;19.83;39.57;100981.28;5103947;28;20069;-30
2022/04/19 09:38:07;;;;;;;0.20;0.20;;;;;;;19.83;39.71;100994.28;5084103;28;20478;-29
2022/04/19 09:40:35;;;;;;;0.20;0.20;;;;;;;19.84;39.81;100995.94;5116320;28;20131;-30
2022/04/19 09:45:56;;;;;;;0.20;0.20;;;;;;;19.84;39.43;100990.41;5179490;27;20147;-28
2022/04/19 09:48:26;;;;;;;0.20;0.20;;;;;;;19.84;39.54;100984.88;5155319;27;20042;-28
2022/04/19 09:50:55;;;;;;;0.13;0.13;;;;;;;19.84;39.68;100985.69;5138313;27;20092;-27
2022/04/19 09:53:22;;;;;;;0.10;0.10;;;;;;;19.85;39.44;100986.53;5141873;27;20085;-27
2022/04/19 09:55:50;;;;;;;0.20;0.20;;;;;;;19.84;39.44;100977.41;5139871;27;20069;-28
2022/04/19 09:58:17;;;;;;;0.20;0.20;;;;;;;19.83;39.70;100977.69;5136011;27;20310;-28
2022/04/19 10:00:45;;;;;;;0.20;0.20;;;;;;;19.84;39.51;100971.88;5141016;27;20434;-31
2022/04/19 10:08:43;;;;;;;0.20;0.20;;;;;;;19.83;39.40;100969.41;5145007;27;20483;-30
2022/04/19 10:11:09;;;;;;;0.20;0.20;;;;;;;19.84;39.49;100965.53;5162581;27;20066;-31
2022/04/19 10:13:38;;;;;;;0.20;0.20;;;;;;;19.83;39.67;100970.25;5159928;27;20039;-29
2022/04/19 10:16:11;;;;;;;0.20;0.20;;;;;;;19.83;39.77;100970.25;5157989;27;20461;-31
2022/04/19 10:18:37;;;;;;;0.20;0.20;;;;;;;19.84;39.53;100971.06;5156395;27;20082;-31
2022/04/19 10:21:06;;;;;;;0.20;0.20;;;;;;;19.84;39.73;100965.53;5150568;27;20067;-30
2022/04/19 10:23:36;;;;;;;0.20;0.20;;;;;;;19.84;39.51;100960.81;5138848;27;20077;-31
2022/04/19 10:26:22;;;;;;;0.20;0.20;;;;;;;19.84;39.69;100960.81;5135778;27;20043;-30
2022/04/19 10:28:50;;;;;;;0.20;0.20;;;;;;;19.84;39.76;100965.53;5121943;27;20043;-30
2022/04/19 10:31:25;;;;;;;0.20;0.20;;;;;;;19.82;39.50;100957.53;5142637;27;20091;-30
2022/04/19 10:33:52;;;;;;;0.20;0.20;;;;;;;19.83;39.45;100956.41;5160069;27;20440;-30
2022/04/19 10:36:37;;;;;;;0.20;0.20;;;;;;;19.84;39.60;100955.31;5160671;27;20484;-31
2022/04/19 10:39:21;;;;;;;0.20;0.20;;;;;;;19.85;39.64;100956.13;5160447;27;20090;-30
2022/04/19 10:44:32;;;;;;;0.20;0.20;;;;;;;19.84;39.53;100952.53;5164722;27;20140;-28
2022/04/19 10:47:12;;;;;;;0.20;0.20;;;;;;;19.83;39.71;100952.84;5161809;27;20131;-27
2022/04/19 10:49:59;;;;;;;0.20;0.20;;;;;;;19.83;39.54;100948.13;5140977;27;20038;-29
2022/04/19 10:52:43;;;;;;;0.20;0.20;;;;;;;19.84;39.68;100938.72;5140558;27;20456;-28
2022/04/19 10:55:27;;;;;;;0.20;0.20;;;;;;;19.83;39.37;100947.31;5157718;27;20620;-29
2022/04/19 10:58:27;;;;;;;0.20;0.20;;;;;;;19.84;39.60;100933.19;5166012;27;20070;-28
2022/04/19 11:00:51;;;;;;;0.20;0.20;;;;;;;19.84;39.75;100937.91;5147409;27;20073;-29
2022/04/19 11:03:49;;;;;;;0.20;0.20;;;;;;;19.84;39.53;100938.72;5148558;27;20053;-28
2022/04/19 11:06:37;;;;;;;0.20;0.20;;;;;;;19.84;39.50;100933.19;5165118;27;20520;-27
2022/04/19 11:09:05;;;;;;;0.20;0.20;;;;;;;19.83;39.72;100936.25;5133316;27;20104;-28
2022/04/19 11:11:43;;;;;;;;;;;;;;;19.84;39.51;100929.59;5147751;27;20489;-28
2022/04/19 11:14:20;;;;;;;0.20;0.20;;;;;;;19.82;39.57;100934.56;5144330;27;19976;-27
2022/04/19 11:16:50;;;;;;;0.20;0.20;;;;;;;19.83;39.42;100936.25;5162244;27;20480;-29
2022/04/19 11:19:19;;;;;;;0.20;0.20;;;;;;;19.84;39.73;100935.13;5158086;27;20047;-27
2022/04/19 11:21:52;;;;;;;0.20;0.20;;;;;;;19.83;39.79;100920.50;5164447;27;20042;-27
2022/04/19 11:24:58;;;;;;;0.20;0.20;;;;;;;19.84;39.47;100929.59;5146982;27;20090;-27
2022/04/19 11:27:25;;;;;;;0.20;0.20;;;;;;;19.83;39.71;100931.53;5132287;27;20078;-28
2022/04/19 11:29:51;;;;;;;0.20;0.20;;;;;;;19.83;39.77;100937.06;5146746;27;20070;-31
2022/04/19 11:32:23;;;;;;;0.20;0.20;;;;;;;19.85;39.45;100934.00;5142486;27;20050;-31
2022/04/19 11:35:01;;;;;;;0.20;0.20;;;;;;;19.84;39.58;100927.66;5162004;27;20042;-31
2022/04/19 11:37:29;;;;;;;0.20;0.20;;;;;;;19.85;39.45;100925.72;5143858;27;20127;-30
2022/04/19 11:48:45;;;;;;;0.20;0.20;;;;;;;19.84;39.68;100924.09;5137602;27;20055;-31
2022/04/19 11:51:13;;;;;;;0.20;0.20;;;;;;;19.85;39.59;100932.06;5134327;27;20082;-31
2022/04/19 11:53:39;;;;;;;0.20;0.20;;;;;;;19.85;39.85;100925.72;5133734;27;20512;-30
2022/04/19 11:56:06;;;;;;;0.20;0.20;;;;;;;19.84;39.58;100916.59;5118904;27;20481;-31
2022/04/19 11:58:32;;;;;;;0.20;0.20;;;;;;;19.84;39.56;100926.84;5103662;27;20122;-31
2022/04/19 12:01:01;;;;;;;0.20;0.20;;;;;;;19.85;39.49;100931.25;5116858;27;20172;-30
2022/04/19 12:03:28;;;;;;;0.20;0.20;;;;;;;19.84;39.45;100919.38;5143237;27;20145;-31
2022/04/19 12:06:07;;;;;;;0.20;0.20;;;;;;;19.85;39.45;100922.97;5131690;27;20068;-29
2022/04/19 12:08:43;;;;;;;0.20;0.20;;;;;;;19.84;39.50;100922.13;5120020;27;20495;-30
2022/04/19 12:11:10;;;;;;;0.20;0.20;;;;;;;19.85;39.66;100925.72;5139116;27;20116;-30